Flight Track Log - Related Links

Times and Time Zones

All times are in EDT time to prevent confusion due to time zone crossing. See the RPA3887 flight status page for this flight to view local times or setup timezone preferences in your user account.

Time Position Orientation Groundspeed Altitude Reporting Facility
EDT Latitude Longitude Course Direction KTS MPH feet Rate Location/Type
Sun 12:06:20 PM 39.8833 -104.6167 123° Southeast 184 212 5,900  Level Denver TRACON
Sun 12:07:20 PM 39.8500 -104.5500 123° Southeast 218 251 7,600 1,631 Climbing Denver TRACON
Sun 12:08:03 PM 39.8375 -104.4914 106° East 221 254 8,700 1,714 Climbing Denver Center
Sun 12:09:05 PM 39.8075 -104.4108 116° Southeast 229 264 10,600 1,597 Climbing Denver Center
Sun 12:10:07 PM 39.7947 -104.3281 101° East 238 274 12,000 1,059 Climbing Denver Center
Sun 12:11:21 PM 39.7883 -104.2375 95° East 252 290 13,000 438 Climbing Denver Center
Sun 12:12:24 PM 39.7758 -104.0958 97° East 317 365 13,000  Level Denver Center
Sun 12:13:26 PM 39.7633 -103.9772 98° East 332 382 13,000  Level Denver Center
Sun 12:14:28 PM 39.7517 -103.8522 97° East 348 400 13,000 48 Level Denver Center
Sun 12:15:30 PM 39.7383 -103.7150 97° East 345 397 13,100 48 Climbing Denver Center
Sun 12:16:32 PM 39.7300 -103.5881 95° East 350 403 13,100  Level Denver Center
Sun 12:17:34 PM 39.7183 -103.4633 97° East 350 403 13,100  Level Denver Center
Sun 12:18:48 PM 39.7064 -103.3175 96° East 344 396 13,100 485 Level Denver Center
Sun 12:19:50 PM 39.6964 -103.1992 96° East 332 382 14,200 1,258 Climbing Denver Center
Sun 12:20:52 PM 39.6689 -103.0711 106° East 307 353 15,700 1,152 Climbing Denver Center
Sun 12:21:55 PM 39.6481 -102.9664 104° East 303 349 16,600 624 Climbing Denver Center
Sun 12:22:57 PM 39.6278 -102.8597 104° East 305 351 17,000 290 Climbing Denver Center
Sun 12:23:59 PM 39.6050 -102.7442 104° East 326 375 17,200 677 Climbing Denver Center
Sun 12:25:01 PM 39.5811 -102.6306 105° East 326 375 18,400 1,113 Climbing Denver Center
Sun 12:26:03 PM 39.5583 -102.5236 105° East 312 359 19,500 1,113 Climbing Denver Center
Sun 12:27:05 PM 39.5344 -102.3992 104° East 298 343 20,700 1,016 Climbing Denver Center
Sun 12:28:07 PM 39.5150 -102.3025 105° East 294 338 21,600 823 Climbing Denver Center
Sun 12:29:09 PM 39.4911 -102.1875 105° East 296 341 22,400 774 Climbing Denver Center
Sun 12:30:11 PM 39.4703 -102.0886 105° East 298 343 23,200 726 Climbing Denver Center
Sun 12:31:13 PM 39.4494 -101.9914 105° East 296 341 23,900 726 Climbing Denver Center
Sun 12:32:15 PM 39.4275 -101.8797 104° East 290 334 24,700 532 Climbing Denver Center
Sun 12:33:17 PM 39.4064 -101.7825 106° East 294 338 25,000 144 Climbing Denver Center
Sun 12:34:20 PM 39.3786 -101.6633 107° East 311 358 25,000  Level Denver Center
Sun 12:35:21 PM 39.3383 -101.5622 117° Southeast 328 377 25,000  Level Denver Center
Sun 12:36:23 PM 39.2919 -101.4408 116° Southeast 338 389 25,000  Level Denver Center
Sun 12:37:25 PM 39.2519 -101.3325 115° Southeast 348 400 25,000  Level Denver Center
Sun 12:38:27 PM 39.2047 -101.2061 116° Southeast 351 404 25,000  Level Denver Center
Sun 12:39:29 PM 39.1631 -101.0975 116° Southeast 353 406 25,000  Level Denver Center
Sun 12:40:31 PM 39.1142 -100.9697 116° Southeast 356 410 25,000  Level Denver Center
Sun 12:41:33 PM 39.0736 -100.8614 116° Southeast 354 407 25,000  Level Denver Center
Sun 12:42:36 PM 39.0253 -100.7364 116° Southeast 351 404 25,000  Level Denver Center
Sun 12:43:38 PM 38.9856 -100.6342 117° Southeast 348 400 25,000  Level Denver Center
Sun 12:44:40 PM 38.9381 -100.5103 116° Southeast 347 399 25,000  Level Denver Center
Sun 12:45:42 PM 38.8972 -100.4075 117° Southeast 341 392 25,000  Level Denver Center
Sun 12:46:44 PM 38.8489 -100.2828 116° Southeast 348 400 25,000  Level Denver Center
Sun 12:47:46 PM 38.8072 -100.1772 117° Southeast 346 398 25,000  Level Denver Center
Sun 12:48:48 PM 38.7583 -100.0536 117° Southeast 348 400 25,000  Level Denver Center
Sun 12:49:57 PM 38.7092 -99.9294 117° Southeast 346 398 25,000  Level Kansas City Center
Sun 12:50:59 PM 38.6675 -99.8231 117° Southeast 348 400 25,000  Level Kansas City Center
Sun 12:52:01 PM 38.6183 -99.7008 117° Southeast 346 398 25,000  Level Kansas City Center
Sun 12:53:03 PM 38.5758 -99.5950 117° Southeast 348 400 25,000 -145 Level Kansas City Center
Sun 12:54:05 PM 38.5339 -99.4925 118° Southeast 347 399 24,700 -435 Descending Kansas City Center
Sun 12:55:07 PM 38.4797 -99.3550 117° Southeast 358 412 24,100 -484 Descending Kansas City Center
Sun 12:56:09 PM 38.4325 -99.2408 118° Southeast 364 419 23,700 -435 Descending Kansas City Center
Sun 12:57:11 PM 38.3861 -99.1231 117° Southeast 368 423 23,200 -387 Descending Kansas City Center
Sun 12:58:13 PM 38.3389 -99.0075 117° Southeast 369 425 22,900 -726 Descending Kansas City Center
Sun 12:59:15 PM 38.2900 -98.8892 118° Southeast 373 429 21,700 -919 Descending Kansas City Center
Sun 01:00:17 PM 38.2406 -98.7681 117° Southeast 384 442 21,000 -339 Descending Kansas City Center
Sun 01:01:19 PM 38.1842 -98.6286 117° Southeast 370 426 21,000 -242 Level Kansas City Center
Sun 01:02:21 PM 38.1364 -98.5147 118° Southeast 366 421 20,500 -1,016 Descending Kansas City Center
Sun 01:03:23 PM 38.0858 -98.3925 118° Southeast 386 444 18,900 -1,645 Descending Kansas City Center
Sun 01:04:25 PM 38.0331 -98.2722 119° Southeast 391 450 17,100 -1,742 Descending Kansas City Center
Sun 01:05:27 PM 37.9844 -98.1561 118° Southeast 377 434 15,300 -1,904 Descending Kansas City Center
Sun 01:06:09 PM 37.9467 -98.0647 118° Southeast 358 412 13,800 -1,340 Descending Kansas City Center
Sun 01:07:10 PM 37.9008 -97.9547 118° Southeast 350 403 13,000 -1,190 Descending Kansas City Center
Sun 01:08:10 PM 37.8519 -97.8586 123° Southeast 317 365 11,400 -1,736 Descending Kansas City Center
Sun 01:09:11 PM 37.8100 -97.7697 121° Southeast 293 337 9,500 -1,770 Descending Kansas City Center
Sun 01:10:12 PM 37.7942 -97.6689 101° East 285 328 7,800 -1,488 Descending Kansas City Center
Sun 01:11:12 PM 37.7808 -97.5756 100° East 269 310 6,500 -1,388 Descending Kansas City Center
Sun 01:12:13 PM 37.7719 -97.4842 97° East 238 274 5,000 -1,252 Descending Kansas City Center
Sun 01:13:07 PM 37.7653 -97.4139 97° East 231 266 4,100 -1,000 Descending Kansas City Center
Sun 01:13:43 PM 37.7439 -97.3903 139° Southeast 226 260 3,500 -1,102 Descending Kansas City Center
Sun 01:14:45 PM 37.7069 -97.4142 207° Southwest 182 209 2,300 -919 Descending Kansas City Center
Sun 01:15:47 PM 37.6758 -97.4269 198° South 144 166 1,600 -387 Descending Kansas City Center
Sun 01:16:49 PM 37.6458 -97.4417 201° Southwest 139 160 1,500 -97 Descending Kansas City Center
Sun 01:18:00 PM 37.6499 -97.4331 90° East  Level Estimated

Login

Don't have an account? Register now (free) for customized features, flight alerts, and more!